createdAt,value
2022-12-17T00:00:31.056Z,199.50
2022-12-17T00:01:30.981Z,210.70
2022-12-17T00:02:31.064Z,203.50
2022-12-17T00:03:31.069Z,198.00
2022-12-17T00:04:30.965Z,193.40
2022-12-17T00:05:30.929Z,195.70
2022-12-17T00:06:30.942Z,202.30
2022-12-17T00:07:30.912Z,191.10
2022-12-17T00:08:30.936Z,200.80
2022-12-17T00:09:30.866Z,194.00
2022-12-17T00:10:30.870Z,204.00
2022-12-17T00:11:30.851Z,205.20
2022-12-17T00:12:30.836Z,198.10
2022-12-17T00:13:30.856Z,200.10
2022-12-17T00:14:30.837Z,201.90
2022-12-17T00:15:30.824Z,200.00
2022-12-17T00:16:30.865Z,200.80
2022-12-17T00:17:30.775Z,197.80
2022-12-17T00:18:30.754Z,187.10
2022-12-17T00:19:30.758Z,183.60
2022-12-17T00:20:30.775Z,192.20
2022-12-17T00:21:30.720Z,185.10
2022-12-17T00:22:30.730Z,183.50
2022-12-17T00:23:30.689Z,180.60
2022-12-17T00:24:30.698Z,189.70
2022-12-17T00:25:30.700Z,182.50
2022-12-17T00:26:30.685Z,188.00
2022-12-17T00:27:30.654Z,181.00
2022-12-17T00:28:30.640Z,190.10
2022-12-17T00:29:30.627Z,185.00
2022-12-17T00:30:30.629Z,185.40
2022-12-17T00:31:30.628Z,181.80
2022-12-17T00:32:30.618Z,180.40
2022-12-17T00:33:30.581Z,182.40
2022-12-17T00:34:30.574Z,188.70
2022-12-17T00:35:30.566Z,187.70
2022-12-17T00:36:30.519Z,191.50
2022-12-17T00:37:30.541Z,190.00
2022-12-17T00:38:30.498Z,180.70
2022-12-17T00:39:30.499Z,171.90
2022-12-17T00:40:30.498Z,185.00
2022-12-17T00:41:30.489Z,182.80
2022-12-17T00:42:30.479Z,186.60
2022-12-17T00:43:30.473Z,181.20
2022-12-17T00:44:30.453Z,181.60
2022-12-17T00:45:30.412Z,167.00
2022-12-17T00:46:37.115Z,177.60
2022-12-17T00:47:30.401Z,178.10
2022-12-17T00:48:30.381Z,168.90
2022-12-17T00:49:30.377Z,179.40
2022-12-17T00:50:30.370Z,169.70
2022-12-17T00:51:30.356Z,178.70
2022-12-17T00:52:30.336Z,168.60
2022-12-17T00:53:30.359Z,170.90
2022-12-17T00:54:30.318Z,173.00
2022-12-17T00:55:30.299Z,161.50
2022-12-17T00:56:30.285Z,167.50
2022-12-17T00:57:30.250Z,175.60
2022-12-17T00:58:30.267Z,177.60
2022-12-17T00:59:30.248Z,166.10
2022-12-17T01:00:30.262Z,171.80
2022-12-17T01:01:30.422Z,160.10
2022-12-17T01:02:30.301Z,166.20
2022-12-17T01:03:30.203Z,159.70
2022-12-17T01:04:30.196Z,142.60
2022-12-17T01:05:30.157Z,150.80
2022-12-17T01:06:30.141Z,142.80
2022-12-17T01:07:30.132Z,152.20
2022-12-17T01:08:30.164Z,154.50
2022-12-17T01:09:30.132Z,154.10
2022-12-17T01:10:30.135Z,156.90
2022-12-17T01:11:30.115Z,146.50
2022-12-17T01:12:30.058Z,153.50
2022-12-17T01:13:30.057Z,153.80
2022-12-17T01:14:30.049Z,152.60
2022-12-17T01:15:30.038Z,152.40
2022-12-17T01:16:30.067Z,151.30
2022-12-17T01:17:30.030Z,152.60
2022-12-17T01:18:30.006Z,155.60
2022-12-17T01:19:30.005Z,158.70
2022-12-17T01:20:29.972Z,157.10
2022-12-17T01:21:29.997Z,142.10
2022-12-17T01:22:29.950Z,149.60
2022-12-17T01:23:29.949Z,151.90
2022-12-17T01:24:29.910Z,145.40
2022-12-17T01:25:29.911Z,149.10
2022-12-17T01:26:29.901Z,149.90
2022-12-17T01:27:29.930Z,149.20
2022-12-17T01:28:29.868Z,145.30
2022-12-17T01:29:29.839Z,148.00
2022-12-17T01:30:29.870Z,149.20
2022-12-17T01:31:34.695Z,139.60
2022-12-17T01:32:29.851Z,149.10
2022-12-17T01:33:29.813Z,152.60
2022-12-17T01:34:29.793Z,152.10
2022-12-17T01:35:29.782Z,144.50
2022-12-17T01:36:29.787Z,136.20
2022-12-17T01:37:29.784Z,133.90
2022-12-17T01:38:29.746Z,132.00
2022-12-17T01:39:29.759Z,135.80
2022-12-17T01:40:29.714Z,145.60
2022-12-17T01:41:29.708Z,127.50
2022-12-17T01:42:29.706Z,134.20
2022-12-17T01:43:29.756Z,137.30
2022-12-17T01:44:29.689Z,131.00
2022-12-17T01:45:29.701Z,128.80
2022-12-17T01:46:29.650Z,134.40
2022-12-17T01:47:29.616Z,124.50
2022-12-17T01:48:29.605Z,125.30
2022-12-17T01:49:29.598Z,129.80
2022-12-17T01:50:29.638Z,117.40
2022-12-17T01:51:29.553Z,122.20
2022-12-17T01:52:29.583Z,125.00
2022-12-17T01:53:29.530Z,116.10
2022-12-17T01:54:29.551Z,114.40
2022-12-17T01:55:29.513Z,117.60
2022-12-17T01:56:29.543Z,119.10
2022-12-17T01:57:29.504Z,118.00
2022-12-17T01:58:29.483Z,117.90
2022-12-17T01:59:29.493Z,117.10
2022-12-17T02:00:29.491Z,115.60
2022-12-17T02:01:29.629Z,121.50
2022-12-17T02:02:29.565Z,116.60
2022-12-17T02:03:29.437Z,105.90
2022-12-17T02:04:29.388Z,116.00
2022-12-17T02:05:29.400Z,115.70
2022-12-17T02:06:29.373Z,114.10
2022-12-17T02:07:29.432Z,112.40
2022-12-17T02:08:29.332Z,120.40
2022-12-17T02:09:29.346Z,111.60
2022-12-17T02:10:29.318Z,122.80
2022-12-17T02:11:29.313Z,111.30
2022-12-17T02:12:29.308Z,114.80
2022-12-17T02:13:29.294Z,110.40
2022-12-17T02:14:29.283Z,106.00
2022-12-17T02:15:29.271Z,111.40
2022-12-17T02:16:29.323Z,112.10
2022-12-17T02:17:29.263Z,106.80
2022-12-17T02:18:29.207Z,106.40
2022-12-17T02:19:29.201Z,107.80
2022-12-17T02:20:29.202Z,106.90
2022-12-17T02:21:29.183Z,105.80
2022-12-17T02:22:29.182Z,105.30
2022-12-17T02:23:29.196Z,99.50
2022-12-17T02:24:29.132Z,105.30
2022-12-17T02:25:29.155Z,98.50
2022-12-17T02:26:29.152Z,101.40
2022-12-17T02:27:29.146Z,99.80
2022-12-17T02:28:29.094Z,101.40
2022-12-17T02:29:29.113Z,98.10
2022-12-17T02:30:29.064Z,103.20
2022-12-17T02:31:29.078Z,101.70
2022-12-17T02:32:29.073Z,99.10
2022-12-17T02:33:29.042Z,97.10
2022-12-17T02:34:29.050Z,97.40
2022-12-17T02:35:29.013Z,101.30
2022-12-17T02:36:28.976Z,94.80
2022-12-17T02:37:29.047Z,102.30
2022-12-17T02:38:29.009Z,98.60
2022-12-17T02:39:28.975Z,98.20
2022-12-17T02:40:28.930Z,100.30
2022-12-17T02:41:28.977Z,101.30
2022-12-17T02:42:28.897Z,96.80
2022-12-17T02:43:28.921Z,96.00
2022-12-17T02:44:28.905Z,94.60
2022-12-17T02:45:28.968Z,94.00
2022-12-17T02:46:28.947Z,96.90
2022-12-17T02:47:28.866Z,92.10
2022-12-17T02:48:28.852Z,90.70
2022-12-17T02:49:28.818Z,95.80
2022-12-17T02:50:28.812Z,95.20
2022-12-17T02:51:28.807Z,96.40
2022-12-17T02:52:34.546Z,106.00
2022-12-17T02:53:28.780Z,101.20
2022-12-17T02:54:28.787Z,97.10
2022-12-17T02:55:28.771Z,106.10
2022-12-17T02:56:28.772Z,106.80
2022-12-17T02:57:28.725Z,118.10
2022-12-17T02:58:28.692Z,113.40
2022-12-17T02:59:28.709Z,112.60
2022-12-17T03:00:28.705Z,109.60
2022-12-17T03:01:28.809Z,114.60
2022-12-17T03:02:28.842Z,115.30
2022-12-17T03:03:28.721Z,113.80
2022-12-17T03:04:28.615Z,114.60
2022-12-17T03:05:44.608Z,116.40
2022-12-17T03:06:28.637Z,120.70
2022-12-17T03:07:28.591Z,119.10
2022-12-17T03:08:28.592Z,121.50
2022-12-17T03:09:28.593Z,118.30
2022-12-17T03:10:28.561Z,115.60
2022-12-17T03:11:28.556Z,120.10
2022-12-17T03:12:28.511Z,118.00
2022-12-17T03:13:28.524Z,119.40
2022-12-17T03:14:28.513Z,122.40
2022-12-17T03:15:28.510Z,115.90
2022-12-17T03:16:31.508Z,121.70
2022-12-17T03:17:28.474Z,122.50
2022-12-17T03:18:28.457Z,118.10
2022-12-17T03:19:28.479Z,115.40
2022-12-17T03:20:28.444Z,122.00
2022-12-17T03:21:28.447Z,127.00
2022-12-17T03:22:28.413Z,117.70
2022-12-17T03:23:28.382Z,121.70
2022-12-17T03:24:28.380Z,113.40
2022-12-17T03:25:28.362Z,124.00
2022-12-17T03:26:28.331Z,116.90
2022-12-17T03:27:28.361Z,107.90
2022-12-17T03:28:28.355Z,113.50
2022-12-17T03:29:28.334Z,108.90
2022-12-17T03:30:31.077Z,119.30
2022-12-17T03:31:28.310Z,117.00
2022-12-17T03:32:28.270Z,119.90
2022-12-17T03:33:28.263Z,114.30
2022-12-17T03:34:28.264Z,118.70
2022-12-17T03:35:28.252Z,114.00
2022-12-17T03:36:28.218Z,117.40
2022-12-17T03:37:28.225Z,113.10
2022-12-17T03:38:28.198Z,123.30
2022-12-17T03:39:28.204Z,115.30
2022-12-17T03:40:28.170Z,117.70
2022-12-17T03:41:28.142Z,116.50
2022-12-17T03:42:28.156Z,117.20
2022-12-17T03:43:28.145Z,119.50
2022-12-17T03:44:28.118Z,113.60
2022-12-17T03:45:28.125Z,113.80
2022-12-17T03:46:28.127Z,113.90
2022-12-17T03:47:28.061Z,111.70
2022-12-17T03:48:28.077Z,113.20
2022-12-17T03:49:28.063Z,118.20
2022-12-17T03:50:28.071Z,111.40
2022-12-17T03:51:28.067Z,117.10
2022-12-17T03:52:28.010Z,122.70
2022-12-17T03:53:28.065Z,119.30
2022-12-17T03:54:28.002Z,115.40
2022-12-17T03:55:28.015Z,114.60
2022-12-17T03:56:27.943Z,122.10
2022-12-17T03:57:28.013Z,116.40
2022-12-17T03:58:27.938Z,121.80
2022-12-17T03:59:27.932Z,119.90
2022-12-17T04:00:27.906Z,109.50
2022-12-17T04:01:28.052Z,111.70
2022-12-17T04:02:28.096Z,119.50
2022-12-17T04:03:27.998Z,108.50
2022-12-17T04:04:27.876Z,107.10
2022-12-17T04:05:27.882Z,115.20
2022-12-17T04:06:27.867Z,112.10
2022-12-17T04:07:27.812Z,109.40
2022-12-17T04:08:27.788Z,107.00
2022-12-17T04:09:27.826Z,112.50
2022-12-17T04:10:27.822Z,116.60
2022-12-17T04:11:27.811Z,114.30
2022-12-17T04:12:27.780Z,111.70
2022-12-17T04:13:27.764Z,110.70
2022-12-17T04:14:27.729Z,119.80
2022-12-17T04:15:27.744Z,111.20
2022-12-17T04:16:27.738Z,107.80
2022-12-17T04:17:27.720Z,113.20
2022-12-17T04:18:27.695Z,111.30
2022-12-17T04:19:27.674Z,110.10
2022-12-17T04:20:27.661Z,111.00
2022-12-17T04:21:27.648Z,101.70
2022-12-17T04:22:27.630Z,112.20
2022-12-17T04:23:27.612Z,101.60
2022-12-17T04:24:27.613Z,106.30
2022-12-17T04:25:27.613Z,109.50
2022-12-17T04:26:27.609Z,103.80
2022-12-17T04:27:27.602Z,105.60
2022-12-17T04:28:27.575Z,110.10
2022-12-17T04:29:27.550Z,103.80
2022-12-17T04:30:27.530Z,102.20
2022-12-17T04:31:27.556Z,105.70
2022-12-17T04:32:31.110Z,104.50
2022-12-17T04:33:27.527Z,103.70
2022-12-17T04:34:27.487Z,102.50
2022-12-17T04:35:27.463Z,103.20
2022-12-17T04:36:27.451Z,97.70
2022-12-17T04:37:27.440Z,96.70
2022-12-17T04:38:27.422Z,100.10
2022-12-17T04:39:27.454Z,98.80
2022-12-17T04:40:27.417Z,97.20
2022-12-17T04:41:27.400Z,107.00
2022-12-17T04:42:27.396Z,97.10
2022-12-17T04:43:27.377Z,100.30
2022-12-17T04:44:27.372Z,93.90
2022-12-17T04:45:27.335Z,96.00
2022-12-17T04:46:27.351Z,94.70
2022-12-17T04:47:27.320Z,96.30
2022-12-17T04:48:27.327Z,90.40
2022-12-17T04:49:27.302Z,93.90
2022-12-17T04:50:27.289Z,91.20
2022-12-17T04:51:27.250Z,87.50
2022-12-17T04:52:27.270Z,91.50
2022-12-17T04:53:27.257Z,92.90
2022-12-17T04:54:27.217Z,95.60
2022-12-17T04:55:27.234Z,87.20
2022-12-17T04:56:27.223Z,89.00
2022-12-17T04:57:27.193Z,89.60
2022-12-17T04:58:27.151Z,89.90
2022-12-17T04:59:27.185Z,87.00
2022-12-17T05:00:27.181Z,81.40
2022-12-17T05:01:27.228Z,84.10
2022-12-17T05:02:27.331Z,80.40
2022-12-17T05:03:27.137Z,77.50
2022-12-17T05:04:27.107Z,83.30
2022-12-17T05:05:27.100Z,86.60
2022-12-17T05:06:27.096Z,84.70
2022-12-17T05:07:27.049Z,80.60
2022-12-17T05:08:27.066Z,85.30
2022-12-17T05:09:27.010Z,82.30
2022-12-17T05:10:27.017Z,79.70
2022-12-17T05:11:27.067Z,83.70
2022-12-17T05:12:27.030Z,86.50
2022-12-17T05:13:27.002Z,80.00
2022-12-17T05:14:26.979Z,84.70
2022-12-17T05:15:26.967Z,84.00
2022-12-17T05:16:27.017Z,76.70
2022-12-17T05:17:26.943Z,82.30
2022-12-17T05:18:26.936Z,76.70
2022-12-17T05:19:26.877Z,85.30
2022-12-17T05:20:26.885Z,89.60
2022-12-17T05:21:31.865Z,83.10
2022-12-17T05:22:26.889Z,81.30
2022-12-17T05:23:26.864Z,85.50
2022-12-17T05:24:26.855Z,81.90
2022-12-17T05:25:26.839Z,80.60
2022-12-17T05:26:26.869Z,74.00
2022-12-17T05:27:26.818Z,70.70
2022-12-17T05:28:26.817Z,70.50
2022-12-17T05:29:26.773Z,80.20
2022-12-17T05:30:26.743Z,79.10
2022-12-17T05:31:26.824Z,74.20
2022-12-17T05:32:26.758Z,73.40
2022-12-17T05:33:26.744Z,75.80
2022-12-17T05:34:26.767Z,76.70
2022-12-17T05:35:26.716Z,77.60
2022-12-17T05:36:26.668Z,78.20
2022-12-17T05:37:26.684Z,72.00
2022-12-17T05:38:26.699Z,76.10
2022-12-17T05:39:26.631Z,71.70
2022-12-17T05:40:26.624Z,78.50
2022-12-17T05:41:26.626Z,76.40
2022-12-17T05:42:26.621Z,75.20
2022-12-17T05:43:26.644Z,76.00
2022-12-17T05:44:26.594Z,76.70
2022-12-17T05:45:26.577Z,76.10
2022-12-17T05:46:26.679Z,82.70
2022-12-17T05:47:26.567Z,75.30
2022-12-17T05:48:26.567Z,74.40
2022-12-17T05:49:26.530Z,73.10
2022-12-17T05:50:26.528Z,74.10
2022-12-17T05:51:26.481Z,77.70
2022-12-17T05:52:26.506Z,77.00
2022-12-17T05:53:26.477Z,82.20
2022-12-17T05:54:26.471Z,75.80
2022-12-17T05:55:26.435Z,72.70
2022-12-17T05:56:26.448Z,73.10
2022-12-17T05:57:26.391Z,73.50
2022-12-17T05:58:26.435Z,74.90
2022-12-17T05:59:26.432Z,77.80
2022-12-17T06:00:26.413Z,81.20
2022-12-17T06:01:26.418Z,84.60
2022-12-17T06:02:26.459Z,86.10
2022-12-17T06:03:26.453Z,83.00
2022-12-17T06:04:26.387Z,82.80
2022-12-17T06:05:26.382Z,90.30
2022-12-17T06:06:26.320Z,88.00
2022-12-17T06:07:26.283Z,83.70
2022-12-17T06:08:26.287Z,81.40
2022-12-17T06:09:26.293Z,89.40
2022-12-17T06:10:26.251Z,80.40
2022-12-17T06:11:26.257Z,81.80
2022-12-17T06:12:26.241Z,78.00
2022-12-17T06:13:26.193Z,82.50
2022-12-17T06:14:26.178Z,81.30
2022-12-17T06:15:26.239Z,78.80
2022-12-17T06:16:26.222Z,83.00
2022-12-17T06:17:26.139Z,90.70
2022-12-17T06:18:26.147Z,85.20
2022-12-17T06:19:26.123Z,85.30
2022-12-17T06:20:26.114Z,84.60
2022-12-17T06:21:26.085Z,88.00
2022-12-17T06:22:26.078Z,84.10
2022-12-17T06:23:26.071Z,82.50
2022-12-17T06:24:26.058Z,80.50
2022-12-17T06:25:26.088Z,84.20
2022-12-17T06:26:26.044Z,83.50
2022-12-17T06:27:26.053Z,84.60
2022-12-17T06:28:26.049Z,86.30
2022-12-17T06:29:26.035Z,84.60
2022-12-17T06:30:26.009Z,82.40
2022-12-17T06:31:26.051Z,84.40
2022-12-17T06:32:26.018Z,83.70
2022-12-17T06:33:25.951Z,86.60
2022-12-17T06:34:25.926Z,79.70
2022-12-17T06:35:25.918Z,90.00
2022-12-17T06:36:25.925Z,85.70
2022-12-17T06:37:25.894Z,91.90
2022-12-17T06:38:25.902Z,86.10
2022-12-17T06:39:25.870Z,73.80
2022-12-17T06:40:25.864Z,76.40
2022-12-17T06:41:25.862Z,78.70
2022-12-17T06:42:25.847Z,81.50
2022-12-17T06:43:25.841Z,79.80
2022-12-17T06:44:25.811Z,65.50
2022-12-17T06:45:26.016Z,67.90
2022-12-17T06:46:25.804Z,65.80
2022-12-17T06:47:25.796Z,61.20
2022-12-17T06:48:25.770Z,69.30
2022-12-17T06:49:25.750Z,68.50
2022-12-17T06:50:25.787Z,72.80
2022-12-17T06:51:25.707Z,75.70
2022-12-17T06:52:25.704Z,79.60
2022-12-17T06:53:25.731Z,79.20
2022-12-17T06:54:25.677Z,79.90
2022-12-17T06:55:25.676Z,80.60
2022-12-17T06:56:25.700Z,73.30
2022-12-17T06:57:25.677Z,76.70
2022-12-17T06:58:25.650Z,74.80
2022-12-17T06:59:25.616Z,78.10
2022-12-17T07:00:25.648Z,76.60
2022-12-17T07:01:25.744Z,78.70
2022-12-17T07:02:25.699Z,73.10
2022-12-17T07:03:25.619Z,81.50
2022-12-17T07:04:25.576Z,72.90
2022-12-17T07:05:25.526Z,74.50
2022-12-17T07:06:25.534Z,73.50
2022-12-17T07:07:25.523Z,69.40
2022-12-17T07:08:25.521Z,75.60
2022-12-17T07:09:25.506Z,77.10
2022-12-17T07:10:25.500Z,75.70
2022-12-17T07:11:25.528Z,79.70
2022-12-17T07:12:25.476Z,69.10
2022-12-17T07:13:25.447Z,71.80
2022-12-17T07:14:25.439Z,73.00
2022-12-17T07:15:25.416Z,72.30
2022-12-17T07:16:25.491Z,61.00
2022-12-17T07:17:25.407Z,64.10
2022-12-17T07:18:25.360Z,69.60
2022-12-17T07:19:27.415Z,69.70
2022-12-17T07:20:25.378Z,67.00
2022-12-17T07:21:25.404Z,71.30
2022-12-17T07:22:25.345Z,64.50
2022-12-17T07:23:25.337Z,64.90
2022-12-17T07:24:25.340Z,62.00
2022-12-17T07:25:25.288Z,64.90
2022-12-17T07:26:25.294Z,64.00
2022-12-17T07:27:25.282Z,65.60
2022-12-17T07:28:25.263Z,60.80
2022-12-17T07:29:25.224Z,60.70
2022-12-17T07:30:25.222Z,66.30
2022-12-17T07:31:25.270Z,58.70
2022-12-17T07:32:25.209Z,64.20
2022-12-17T07:33:25.186Z,64.70
2022-12-17T07:34:25.158Z,65.20
2022-12-17T07:35:25.140Z,63.10
2022-12-17T07:36:25.185Z,64.40
2022-12-17T07:37:25.153Z,63.50
2022-12-17T07:38:25.115Z,58.60
2022-12-17T07:39:25.107Z,59.20
2022-12-17T07:40:25.123Z,55.80
2022-12-17T07:41:25.072Z,52.20
2022-12-17T07:42:25.069Z,54.20
2022-12-17T07:43:25.064Z,51.70
2022-12-17T07:44:25.060Z,57.00
2022-12-17T07:45:25.119Z,58.90
2022-12-17T07:46:25.036Z,58.40
2022-12-17T07:47:24.981Z,56.70
2022-12-17T07:48:25.033Z,58.30
2022-12-17T07:49:26.119Z,57.80
2022-12-17T07:50:24.966Z,54.40
2022-12-17T07:51:24.951Z,59.50
2022-12-17T07:52:24.948Z,56.50
2022-12-17T07:53:24.927Z,52.10
2022-12-17T07:54:24.934Z,55.40
2022-12-17T07:55:24.876Z,53.50
2022-12-17T07:56:24.893Z,53.90
2022-12-17T07:57:24.879Z,54.60
2022-12-17T07:58:24.840Z,50.90
2022-12-17T07:59:24.860Z,51.90
2022-12-17T08:00:24.816Z,49.10
2022-12-17T08:01:24.859Z,51.00
2022-12-17T08:02:25.011Z,52.40
2022-12-17T08:03:24.967Z,49.50
2022-12-17T08:04:24.776Z,49.30
2022-12-17T08:05:24.748Z,49.60
2022-12-17T08:06:24.758Z,49.80
2022-12-17T08:07:24.744Z,50.60
2022-12-17T08:08:24.727Z,50.20
2022-12-17T08:09:24.695Z,47.80
2022-12-17T08:10:24.753Z,49.40
2022-12-17T08:11:24.687Z,48.10
2022-12-17T08:12:24.666Z,53.70
2022-12-17T08:13:24.653Z,53.60
2022-12-17T08:14:24.652Z,52.20
2022-12-17T08:15:24.638Z,50.10
2022-12-17T08:16:24.668Z,52.50
2022-12-17T08:17:24.633Z,49.10
2022-12-17T08:18:26.908Z,52.90
2022-12-17T08:19:24.592Z,50.10
2022-12-17T08:20:24.558Z,50.90
2022-12-17T08:21:24.573Z,49.30
2022-12-17T08:22:24.541Z,54.50
2022-12-17T08:23:24.531Z,51.90
2022-12-17T08:24:24.526Z,51.40
2022-12-17T08:25:24.495Z,52.20
2022-12-17T08:26:24.503Z,51.00
2022-12-17T08:27:24.475Z,47.90
2022-12-17T08:28:49.455Z,51.20
2022-12-17T08:29:24.461Z,48.60
2022-12-17T08:30:24.700Z,48.00
2022-12-17T08:31:24.495Z,51.30
2022-12-17T08:32:24.413Z,51.40
2022-12-17T08:33:24.387Z,48.80
2022-12-17T08:34:24.382Z,47.70
2022-12-17T08:35:24.362Z,49.00
2022-12-17T08:36:24.383Z,54.20
2022-12-17T08:37:24.360Z,51.10
2022-12-17T08:38:24.355Z,53.70
2022-12-17T08:39:24.314Z,53.00
2022-12-17T08:40:24.320Z,50.30
2022-12-17T08:41:24.298Z,53.50
2022-12-17T08:42:24.306Z,52.70
2022-12-17T08:43:24.277Z,54.60
2022-12-17T08:44:24.257Z,54.30
2022-12-17T08:45:24.232Z,51.40
2022-12-17T08:46:24.328Z,56.20
2022-12-17T08:47:24.223Z,53.80
2022-12-17T08:48:24.203Z,56.10
2022-12-17T08:49:24.207Z,55.40
2022-12-17T08:50:24.175Z,56.10
2022-12-17T08:51:24.188Z,56.70
2022-12-17T08:52:24.147Z,54.90
2022-12-17T08:53:24.158Z,55.70
2022-12-17T08:54:24.150Z,55.80
2022-12-17T08:55:24.121Z,55.40
2022-12-17T08:56:24.116Z,57.80
2022-12-17T08:57:31.346Z,52.60
2022-12-17T08:58:24.110Z,54.90
2022-12-17T08:59:24.066Z,55.20
2022-12-17T09:00:24.059Z,56.60
2022-12-17T09:01:24.214Z,54.40
2022-12-17T09:02:24.209Z,58.70
2022-12-17T09:03:24.091Z,54.60
2022-12-17T09:04:24.017Z,57.20
2022-12-17T09:05:23.999Z,55.80
2022-12-17T09:06:23.994Z,56.90
2022-12-17T09:07:23.952Z,58.70
2022-12-17T09:08:23.959Z,55.70
2022-12-17T09:09:23.940Z,59.80
2022-12-17T09:10:23.934Z,58.00
2022-12-17T09:11:23.916Z,55.40
2022-12-17T09:12:23.905Z,57.10
2022-12-17T09:13:23.904Z,55.90
2022-12-17T09:14:23.894Z,54.00
2022-12-17T09:15:23.854Z,54.40
2022-12-17T09:16:23.887Z,53.60
2022-12-17T09:17:23.849Z,55.70
2022-12-17T09:18:23.838Z,57.30
2022-12-17T09:19:23.819Z,55.90
2022-12-17T09:20:29.091Z,51.20
2022-12-17T09:21:23.817Z,54.90
2022-12-17T09:22:23.792Z,56.40
2022-12-17T09:23:23.797Z,54.60
2022-12-17T09:24:23.805Z,51.80
2022-12-17T09:25:23.765Z,49.70
2022-12-17T09:26:23.723Z,56.80
2022-12-17T09:27:23.800Z,56.30
2022-12-17T09:28:23.749Z,50.30
2022-12-17T09:29:23.720Z,52.50
2022-12-17T09:30:23.694Z,50.90
2022-12-17T09:31:23.723Z,49.70
2022-12-17T09:32:23.674Z,46.90
2022-12-17T09:33:23.715Z,47.80
2022-12-17T09:34:23.616Z,54.30
2022-12-17T09:35:23.631Z,50.00
2022-12-17T09:36:23.572Z,47.50
2022-12-17T09:37:23.605Z,48.00
2022-12-17T09:38:23.582Z,47.20
2022-12-17T09:39:23.588Z,45.30
2022-12-17T09:40:23.540Z,49.70
2022-12-17T09:41:23.583Z,43.40
2022-12-17T09:42:23.514Z,46.00
2022-12-17T09:43:23.537Z,47.10
2022-12-17T09:44:23.500Z,46.80
2022-12-17T09:45:23.524Z,47.10
2022-12-17T09:46:23.517Z,48.70
2022-12-17T09:47:23.478Z,44.80
2022-12-17T09:48:26.826Z,47.80
2022-12-17T09:49:23.479Z,49.50
2022-12-17T09:50:23.400Z,46.00
2022-12-17T09:51:23.404Z,42.10
2022-12-17T09:52:23.404Z,45.50
2022-12-17T09:53:23.417Z,43.30
2022-12-17T09:54:23.440Z,47.50
2022-12-17T09:55:23.377Z,44.40
2022-12-17T09:56:23.317Z,41.80
2022-12-17T09:57:23.328Z,41.80
2022-12-17T09:58:23.328Z,41.00
2022-12-17T09:59:23.305Z,42.90
2022-12-17T10:00:23.355Z,44.50
2022-12-17T10:01:23.435Z,41.10
2022-12-17T10:02:23.439Z,40.80
2022-12-17T10:03:23.366Z,42.10
2022-12-17T10:04:23.299Z,44.10
2022-12-17T10:05:23.252Z,43.00
2022-12-17T10:06:23.231Z,42.10
2022-12-17T10:07:23.202Z,39.30
2022-12-17T10:08:23.171Z,42.80
2022-12-17T10:09:23.165Z,41.40
2022-12-17T10:10:23.199Z,42.20
2022-12-17T10:11:23.243Z,43.30
2022-12-17T10:12:23.128Z,44.20
2022-12-17T10:13:23.107Z,42.60
2022-12-17T10:14:23.105Z,38.80
2022-12-17T10:15:23.128Z,42.60
2022-12-17T10:16:23.176Z,43.30
2022-12-17T10:17:23.123Z,44.00
2022-12-17T10:18:23.086Z,45.70
2022-12-17T10:19:23.091Z,44.80
2022-12-17T10:20:23.065Z,44.50
2022-12-17T10:21:23.027Z,43.10
2022-12-17T10:22:23.000Z,46.00
2022-12-17T10:23:23.001Z,44.90
2022-12-17T10:24:22.957Z,48.80
2022-12-17T10:25:22.943Z,48.70
2022-12-17T10:26:22.966Z,42.40
2022-12-17T10:27:22.958Z,42.90
2022-12-17T10:28:23.107Z,41.00
2022-12-17T10:29:22.925Z,47.80
2022-12-17T10:30:22.928Z,43.60
2022-12-17T10:31:23.091Z,47.60
2022-12-17T10:32:22.847Z,45.20
2022-12-17T10:33:22.867Z,44.70
2022-12-17T10:34:22.883Z,45.00
2022-12-17T10:35:22.844Z,44.60
2022-12-17T10:36:22.826Z,45.10
2022-12-17T10:37:22.826Z,49.90
2022-12-17T10:38:22.775Z,42.30
2022-12-17T10:39:22.821Z,44.60
2022-12-17T10:40:22.784Z,50.20
2022-12-17T10:41:22.754Z,46.50
2022-12-17T10:42:22.751Z,46.20
2022-12-17T10:43:22.730Z,42.20
2022-12-17T10:44:22.691Z,48.00
2022-12-17T10:45:22.715Z,44.20
2022-12-17T10:46:22.772Z,44.90
2022-12-17T10:47:22.691Z,43.80
2022-12-17T10:48:22.673Z,45.10
2022-12-17T10:49:22.679Z,46.20
2022-12-17T10:50:22.650Z,44.80
2022-12-17T10:51:22.639Z,45.80
2022-12-17T10:52:22.603Z,44.00
2022-12-17T10:53:22.624Z,44.00
2022-12-17T10:54:22.578Z,47.40
2022-12-17T10:55:22.573Z,44.90
2022-12-17T10:56:22.547Z,47.90
2022-12-17T10:57:22.594Z,46.60
2022-12-17T10:58:22.568Z,47.10
2022-12-17T10:59:22.546Z,49.50
2022-12-17T11:00:22.500Z,44.70
2022-12-17T11:01:22.708Z,47.10
2022-12-17T11:02:22.616Z,48.30
2022-12-17T11:03:22.526Z,43.90
2022-12-17T11:04:22.461Z,47.30
2022-12-17T11:05:22.487Z,45.90
2022-12-17T11:06:22.463Z,45.60
2022-12-17T11:07:22.431Z,45.10
2022-12-17T11:08:22.399Z,47.10
2022-12-17T11:09:22.371Z,48.90
2022-12-17T11:10:22.363Z,47.20
2022-12-17T11:11:22.390Z,43.70
2022-12-17T11:12:27.122Z,43.40
2022-12-17T11:13:22.358Z,44.70
2022-12-17T11:14:22.300Z,42.20
2022-12-17T11:15:22.329Z,46.50
2022-12-17T11:16:22.378Z,44.30
2022-12-17T11:17:22.301Z,46.60
2022-12-17T11:18:22.280Z,44.10
2022-12-17T11:19:22.277Z,46.40
2022-12-17T11:20:22.255Z,47.00
2022-12-17T11:21:22.281Z,49.00
2022-12-17T11:22:22.257Z,45.00
2022-12-17T11:23:22.265Z,43.60
2022-12-17T11:24:22.939Z,46.80
2022-12-17T11:25:22.233Z,50.20
2022-12-17T11:26:22.183Z,42.80
2022-12-17T11:27:22.204Z,44.00
2022-12-17T11:28:22.137Z,42.70
2022-12-17T11:29:22.134Z,42.80
2022-12-17T11:30:26.263Z,44.60
2022-12-17T11:31:22.202Z,45.80
2022-12-17T11:32:22.115Z,42.70
2022-12-17T11:33:22.134Z,48.00
2022-12-17T11:34:22.101Z,48.20
2022-12-17T11:35:22.063Z,46.20
2022-12-17T11:36:29.431Z,45.60
2022-12-17T11:37:22.052Z,43.60
2022-12-17T11:38:22.022Z,45.90
2022-12-17T11:39:22.013Z,46.00
2022-12-17T11:40:21.987Z,45.80
2022-12-17T11:41:21.982Z,47.70
2022-12-17T11:42:21.978Z,44.20
2022-12-17T11:43:21.981Z,47.20
2022-12-17T11:44:21.934Z,46.80
2022-12-17T11:45:21.937Z,45.50
2022-12-17T11:46:21.975Z,46.20
2022-12-17T11:47:21.932Z,50.10
2022-12-17T11:48:21.877Z,50.50
2022-12-17T11:49:21.893Z,53.10
2022-12-17T11:50:21.883Z,48.40
2022-12-17T11:51:21.906Z,47.50
2022-12-17T11:52:21.840Z,44.10
2022-12-17T11:53:27.717Z,46.30
2022-12-17T11:54:21.817Z,51.70
2022-12-17T11:55:21.807Z,49.20
2022-12-17T11:56:21.806Z,50.10
2022-12-17T11:57:21.850Z,45.00
2022-12-17T11:58:21.764Z,48.50
2022-12-17T11:59:21.759Z,50.10
2022-12-17T12:00:21.753Z,51.40
2022-12-17T12:01:21.811Z,47.90
2022-12-17T12:02:21.776Z,49.50
2022-12-17T12:03:21.851Z,52.70
2022-12-17T12:04:21.718Z,51.80
2022-12-17T12:05:21.681Z,54.50
2022-12-17T12:06:21.649Z,48.80
2022-12-17T12:07:21.672Z,51.70
2022-12-17T12:08:21.605Z,54.90
2022-12-17T12:09:21.632Z,50.40
2022-12-17T12:10:21.597Z,51.70
2022-12-17T12:11:23.746Z,52.20
2022-12-17T12:12:21.615Z,53.90
2022-12-17T12:13:21.584Z,54.40
2022-12-17T12:14:21.567Z,54.60
2022-12-17T12:15:21.540Z,54.20
2022-12-17T12:16:21.621Z,54.50
2022-12-17T12:17:21.559Z,58.20
2022-12-17T12:18:21.505Z,56.70
2022-12-17T12:19:21.488Z,59.30
2022-12-17T12:20:21.478Z,63.00
2022-12-17T12:21:21.474Z,60.40
2022-12-17T12:22:25.929Z,61.90
2022-12-17T12:23:21.481Z,56.00
2022-12-17T12:24:21.445Z,60.20
2022-12-17T12:25:21.475Z,56.30
2022-12-17T12:26:21.405Z,59.20
2022-12-17T12:27:21.372Z,62.90
2022-12-17T12:28:21.393Z,60.40
2022-12-17T12:29:21.345Z,62.70
2022-12-17T12:30:21.339Z,63.10
2022-12-17T12:31:21.389Z,65.70
2022-12-17T12:32:21.315Z,61.90
2022-12-17T12:33:21.327Z,63.60
2022-12-17T12:34:21.323Z,61.10
2022-12-17T12:35:21.268Z,63.10
2022-12-17T12:36:21.297Z,65.00
2022-12-17T12:37:21.267Z,64.90
2022-12-17T12:38:21.263Z,60.10
2022-12-17T12:39:21.251Z,66.40
2022-12-17T12:40:21.221Z,62.80
2022-12-17T12:41:21.214Z,63.30
2022-12-17T12:42:21.187Z,65.70
2022-12-17T12:43:21.174Z,63.20
2022-12-17T12:44:21.189Z,63.30